createdAt,value
2018-11-20T00:02:50.819Z,8.30
2018-11-20T00:05:37.981Z,7.13
2018-11-20T00:08:26.263Z,8.17
2018-11-20T00:11:20.411Z,8.17
2018-11-20T00:14:07.786Z,7.53
2018-11-20T00:16:56.058Z,7.77
2018-11-20T00:19:44.332Z,7.90
2018-11-20T00:22:43.285Z,8.43
2018-11-20T00:25:43.811Z,7.87
2018-11-20T00:28:38.062Z,8.50
2018-11-20T00:31:17.857Z,8.13
2018-11-20T00:34:04.840Z,7.87
2018-11-20T00:37:08.130Z,8.27
2018-11-20T00:39:56.512Z,8.47
2018-11-20T00:42:43.550Z,8.87
2018-11-20T00:45:30.625Z,8.17
2018-11-20T00:48:34.015Z,10.33
2018-11-20T00:51:21.328Z,9.40
2018-11-20T00:54:12.357Z,9.27
2018-11-20T00:57:04.975Z,8.77
2018-11-20T01:00:17.655Z,8.73
2018-11-20T01:03:05.094Z,10.07
2018-11-20T01:05:51.940Z,10.87
2018-11-20T01:08:43.204Z,10.83
2018-11-20T01:11:31.492Z,10.00
2018-11-20T01:14:34.955Z,10.90
2018-11-20T01:17:32.922Z,11.83
2018-11-20T01:20:19.998Z,13.13
2018-11-20T01:23:14.735Z,12.13
2018-11-20T01:26:01.520Z,12.70
2018-11-20T01:28:49.796Z,13.57
2018-11-20T01:31:50.044Z,13.50
2018-11-20T01:34:37.159Z,13.90
2018-11-20T01:37:24.214Z,12.63
2018-11-20T01:40:00.376Z,13.80
2018-11-20T01:43:03.886Z,14.20
2018-11-20T01:46:07.206Z,14.87
2018-11-20T01:49:07.475Z,14.17
2018-11-20T01:52:04.458Z,13.30
2018-11-20T01:54:59.068Z,14.90
2018-11-20T01:58:02.528Z,14.67
2018-11-20T02:00:48.992Z,15.17
2018-11-20T02:03:48.981Z,15.00
2018-11-20T02:06:37.264Z,15.00
2018-11-20T02:09:27.146Z,14.70
2018-11-20T02:12:20.140Z,15.63
2018-11-20T02:15:20.668Z,15.60
2018-11-20T02:18:32.044Z,15.93
2018-11-20T02:21:20.920Z,16.13
2018-11-20T02:23:59.993Z,16.63
2018-11-20T02:27:00.669Z,16.63
2018-11-20T02:29:47.483Z,16.20
2018-11-20T02:32:34.318Z,16.30
2018-11-20T02:35:25.335Z,17.00
2018-11-20T02:38:09.691Z,15.33
2018-11-20T02:40:57.680Z,16.63
2018-11-20T02:43:47.077Z,15.13
2018-11-20T02:46:29.353Z,16.93
2018-11-20T02:49:10.249Z,15.83
2018-11-20T02:52:00.227Z,16.60
2018-11-20T02:54:51.505Z,16.33
2018-11-20T02:57:44.745Z,16.73
2018-11-20T03:00:45.014Z,17.57
2018-11-20T03:03:25.124Z,17.03
2018-11-20T03:06:28.379Z,17.70
2018-11-20T03:09:28.669Z,17.73
2018-11-20T03:12:15.543Z,17.03
2018-11-20T03:15:02.505Z,17.23
2018-11-20T03:18:48.773Z,18.13
2018-11-20T03:21:23.837Z,19.27
2018-11-20T03:24:26.598Z,17.43
2018-11-20T03:27:14.065Z,17.63
2018-11-20T03:31:00.744Z,17.17
2018-11-20T03:33:49.984Z,18.43
2018-11-20T03:36:36.503Z,18.13
2018-11-20T03:39:30.151Z,18.23
2018-11-20T03:42:06.964Z,18.47
2018-11-20T03:44:51.850Z,18.33
2018-11-20T03:47:39.340Z,19.63
2018-11-20T03:50:39.078Z,18.73
2018-11-20T03:53:26.530Z,18.60
2018-11-20T03:56:19.752Z,18.83
2018-11-20T03:59:13.092Z,18.77
2018-11-20T04:01:59.337Z,18.43
2018-11-20T04:04:37.596Z,18.57
2018-11-20T04:07:37.533Z,19.23
2018-11-20T04:10:23.640Z,18.27
2018-11-20T04:13:01.201Z,19.00
2018-11-20T04:15:55.172Z,19.53
2018-11-20T04:18:43.491Z,20.20
2018-11-20T04:21:36.710Z,18.90
2018-11-20T04:24:33.783Z,19.57
2018-11-20T04:27:21.017Z,20.00
2018-11-20T04:30:54.637Z,18.77
2018-11-20T04:34:11.451Z,17.97
2018-11-20T04:37:04.899Z,18.87
2018-11-20T04:39:40.972Z,18.67
2018-11-20T04:42:34.171Z,18.97
2018-11-20T04:45:20.216Z,19.57
2018-11-20T04:48:05.028Z,17.87
2018-11-20T04:51:07.764Z,18.03
2018-11-20T04:53:46.632Z,18.30
2018-11-20T04:56:32.713Z,19.03
2018-11-20T04:59:29.243Z,19.17
2018-11-20T05:02:16.728Z,18.77
2018-11-20T05:05:07.246Z,19.03
2018-11-20T05:08:06.761Z,18.00
2018-11-20T05:10:46.115Z,17.60
2018-11-20T05:13:38.899Z,18.20
2018-11-20T05:16:35.424Z,18.03
2018-11-20T05:19:21.905Z,17.60
2018-11-20T05:22:18.545Z,17.97
2018-11-20T05:25:15.010Z,17.90
2018-11-20T05:28:01.295Z,18.17
2018-11-20T05:32:09.564Z,19.37
2018-11-20T05:34:53.475Z,18.77
2018-11-20T05:37:59.168Z,17.57
2018-11-20T05:40:52.236Z,17.03
2018-11-20T05:43:44.225Z,17.57
2018-11-20T05:46:31.935Z,16.33
2018-11-20T05:49:19.437Z,17.33
2018-11-20T05:52:12.301Z,16.75
2018-11-20T05:55:15.172Z,18.00
2018-11-20T05:58:11.655Z,17.87
2018-11-20T06:04:22.829Z,15.83
2018-11-20T06:07:16.595Z,20.63
2018-11-20T06:10:10.382Z,16.17
2018-11-20T06:12:56.766Z,14.83
2018-11-20T06:15:42.857Z,60.80
2018-11-20T06:18:28.739Z,14.27
2018-11-20T06:21:16.234Z,13.30
2018-11-20T06:24:05.651Z,14.27
2018-11-20T06:27:08.538Z,13.93
2018-11-20T06:30:04.824Z,13.90
2018-11-20T06:32:52.342Z,14.70
2018-11-20T06:35:45.728Z,15.27
2018-11-20T06:38:33.197Z,15.37
2018-11-20T06:41:28.753Z,16.00
2018-11-20T06:44:28.461Z,15.83
2018-11-20T06:47:23.556Z,16.13
2018-11-20T06:50:19.901Z,15.43
2018-11-20T06:53:19.651Z,16.47
2018-11-20T06:56:13.628Z,15.50
2018-11-20T06:59:09.548Z,16.07
2018-11-20T07:02:00.119Z,16.50
2018-11-20T07:04:46.196Z,16.03
2018-11-20T07:07:32.546Z,16.47
2018-11-20T07:10:37.863Z,15.57
2018-11-20T07:13:35.859Z,16.27
2018-11-20T07:16:44.766Z,15.77
2018-11-20T07:19:38.228Z,16.50
2018-11-20T07:25:46.612Z,16.37
2018-11-20T07:28:31.774Z,16.30
2018-11-20T07:31:37.848Z,18.47
2018-11-20T07:34:43.635Z,17.47
2018-11-20T07:37:31.193Z,17.57
2018-11-20T07:40:33.603Z,16.20
2018-11-20T07:43:24.035Z,16.47
2018-11-20T07:46:17.635Z,16.50
2018-11-20T07:49:03.793Z,16.60
2018-11-20T07:52:03.317Z,17.27
2018-11-20T07:54:49.602Z,16.87
2018-11-20T07:57:35.973Z,16.77
2018-11-20T08:00:23.087Z,17.13
2018-11-20T08:03:16.580Z,17.63
2018-11-20T08:06:02.871Z,17.87
2018-11-20T08:08:53.214Z,17.33
2018-11-20T08:11:46.779Z,18.60
2018-11-20T08:14:39.201Z,16.87
2018-11-20T08:17:17.007Z,17.67
2018-11-20T08:20:03.007Z,19.13
2018-11-20T08:22:56.296Z,17.03
2018-11-20T08:25:53.178Z,17.00
2018-11-20T08:28:39.266Z,17.40
2018-11-20T08:31:45.268Z,17.80
2018-11-20T08:34:41.632Z,17.57
2018-11-20T08:37:30.209Z,18.17
2018-11-20T08:40:19.282Z,17.43
2018-11-20T08:43:06.954Z,17.77
2018-11-20T08:45:57.104Z,18.20
2018-11-20T08:48:44.603Z,18.43
2018-11-20T08:51:30.837Z,18.20
2018-11-20T08:54:36.502Z,17.63
2018-11-20T08:57:38.819Z,18.23
2018-11-20T09:00:32.811Z,17.17
2018-11-20T09:03:18.976Z,18.13
2018-11-20T09:06:06.368Z,17.00
2018-11-20T09:09:09.269Z,18.43
2018-11-20T09:11:58.476Z,17.07
2018-11-20T09:14:44.618Z,17.50
2018-11-20T09:17:30.883Z,17.77
2018-11-20T09:20:17.572Z,18.90
2018-11-20T09:23:04.972Z,17.07
2018-11-20T09:25:59.034Z,18.53
2018-11-20T09:28:36.720Z,17.40
2018-11-20T09:31:23.043Z,17.93
2018-11-20T09:34:16.746Z,18.13
2018-11-20T09:37:13.198Z,17.67
2018-11-20T09:40:07.705Z,18.20
2018-11-20T09:42:46.861Z,18.23
2018-11-20T09:45:59.991Z,18.17
2018-11-20T09:48:53.346Z,18.50
2018-11-20T09:51:43.713Z,18.52
2018-11-20T09:54:24.821Z,18.50
2018-11-20T09:57:17.221Z,18.97
2018-11-20T10:00:07.613Z,19.17
2018-11-20T10:02:56.773Z,18.63
2018-11-20T10:05:46.304Z,19.40
2018-11-20T10:08:30.503Z,18.90
2018-11-20T10:11:33.406Z,19.37
2018-11-20T10:14:30.264Z,18.67
2018-11-20T10:17:35.787Z,19.43
2018-11-20T10:20:19.991Z,19.33
2018-11-20T10:23:12.247Z,18.10
2018-11-20T10:25:58.746Z,18.07
2018-11-20T10:28:45.021Z,18.67
2018-11-20T10:31:47.009Z,18.77
2018-11-20T10:34:46.753Z,18.57
2018-11-20T10:37:45.910Z,19.97
2018-11-20T10:40:32.574Z,18.77
2018-11-20T10:43:24.586Z,17.20
2018-11-20T10:46:24.231Z,18.53
2018-11-20T10:49:26.985Z,18.07
2018-11-20T10:52:29.865Z,17.63
2018-11-20T10:55:16.031Z,17.47
2018-11-20T10:57:52.583Z,17.37
2018-11-20T11:00:39.121Z,16.93
2018-11-20T11:03:44.978Z,17.23
2018-11-20T11:06:31.898Z,18.00
2018-11-20T11:09:22.406Z,19.10
2018-11-20T11:12:16.203Z,17.03
2018-11-20T11:15:09.215Z,18.03
2018-11-20T11:18:17.597Z,17.53
2018-11-20T11:21:14.350Z,17.83
2018-11-20T11:24:14.045Z,17.03
2018-11-20T11:27:00.234Z,16.50
2018-11-20T11:30:06.015Z,16.40
2018-11-20T11:33:31.391Z,16.83
2018-11-20T11:36:17.982Z,17.63
2018-11-20T11:39:27.882Z,17.23
2018-11-20T11:42:15.329Z,17.60
2018-11-20T11:45:35.184Z,17.87
2018-11-20T11:48:34.799Z,17.10
2018-11-20T11:51:27.851Z,17.50
2018-11-20T11:54:12.738Z,16.63
2018-11-20T11:57:18.501Z,18.43
2018-11-20T12:00:14.987Z,16.77
2018-11-20T12:09:01.929Z,16.07
2018-11-20T12:11:56.536Z,17.10
2018-11-20T12:14:42.756Z,17.83
2018-11-20T12:17:29.133Z,17.07
2018-11-20T12:20:15.436Z,16.73
2018-11-20T12:23:01.354Z,18.50
2018-11-20T12:25:51.673Z,17.47
2018-11-20T12:28:51.090Z,16.93
2018-11-20T12:31:44.302Z,17.53
2018-11-20T12:34:31.462Z,17.83
2018-11-20T12:37:31.121Z,17.53
2018-11-20T12:40:18.183Z,17.53
2018-11-20T12:43:21.051Z,17.17
2018-11-20T12:46:13.176Z,17.73
2018-11-20T12:49:19.092Z,16.57
2018-11-20T12:52:07.361Z,17.47
2018-11-20T12:54:53.703Z,16.90
2018-11-20T12:57:45.920Z,16.73
2018-11-20T13:00:35.224Z,17.70
2018-11-20T13:03:21.442Z,16.87
2018-11-20T13:06:07.503Z,17.17
2018-11-20T13:08:53.981Z,17.40
2018-11-20T13:11:56.415Z,17.60
2018-11-20T13:14:42.422Z,16.20
2018-11-20T13:17:37.965Z,16.03
2018-11-20T13:20:36.474Z,17.27
2018-11-20T13:23:21.573Z,16.70
2018-11-20T13:26:15.020Z,16.50
2018-11-20T13:29:01.143Z,17.03
2018-11-20T13:31:47.447Z,17.10
2018-11-20T13:34:40.941Z,17.30
2018-11-20T13:37:28.439Z,17.83
2018-11-20T13:40:10.492Z,17.13
2018-11-20T13:43:04.249Z,17.87
2018-11-20T13:45:53.791Z,18.13
2018-11-20T13:48:57.648Z,17.07
2018-11-20T13:51:57.448Z,18.20
2018-11-20T13:54:44.969Z,16.87
2018-11-20T13:57:35.034Z,17.93
2018-11-20T14:00:14.987Z,17.30
2018-11-20T14:03:01.369Z,17.53
2018-11-20T14:06:01.973Z,17.80
2018-11-20T14:09:10.946Z,17.80
2018-11-20T14:11:53.874Z,17.67
2018-11-20T14:14:45.136Z,18.20
2018-11-20T14:17:43.401Z,18.40
2018-11-20T14:20:35.497Z,17.60
2018-11-20T14:23:29.292Z,18.90
2018-11-20T14:26:19.552Z,19.37
2018-11-20T14:29:25.101Z,20.27
2018-11-20T14:32:24.965Z,18.73
2018-11-20T14:35:01.313Z,18.17
2018-11-20T14:37:47.831Z,17.90
2018-11-20T14:40:34.003Z,18.53
2018-11-20T14:43:33.571Z,19.17
2018-11-20T14:46:19.698Z,19.13
2018-11-20T14:49:29.307Z,19.00
2018-11-20T14:52:24.492Z,19.13
2018-11-20T14:55:21.130Z,18.60
2018-11-20T14:58:07.135Z,19.50
2018-11-20T15:00:53.179Z,20.60
2018-11-20T15:03:45.360Z,20.07
2018-11-20T15:06:31.352Z,20.27
2018-11-20T15:09:33.977Z,19.00
2018-11-20T15:12:12.697Z,20.27
2018-11-20T15:15:00.164Z,20.60
2018-11-20T15:18:03.249Z,21.10
2018-11-20T15:20:49.555Z,20.73
2018-11-20T15:23:37.073Z,20.73
2018-11-20T15:26:33.571Z,20.77
2018-11-20T15:29:21.282Z,20.60
2018-11-20T15:32:11.868Z,19.73
2018-11-20T15:34:58.184Z,21.83
2018-11-20T15:37:48.771Z,20.88
2018-11-20T15:40:51.428Z,21.10
2018-11-20T15:43:37.397Z,20.47
2018-11-20T15:46:24.186Z,21.63
2018-11-20T15:49:34.976Z,20.90
2018-11-20T15:52:07.196Z,20.80
2018-11-20T15:55:07.019Z,20.17
2018-11-20T15:58:00.406Z,21.40
2018-11-20T16:00:45.087Z,20.30
2018-11-20T16:03:31.311Z,20.47
2018-11-20T16:06:07.150Z,20.10
2018-11-20T16:09:06.607Z,19.90
2018-11-20T16:12:05.936Z,19.67
2018-11-20T16:15:02.271Z,20.00
2018-11-20T16:17:48.472Z,18.70
2018-11-20T16:21:14.162Z,16.73
2018-11-20T16:24:09.098Z,16.73
2018-11-20T16:26:55.144Z,16.83
2018-11-20T16:29:48.309Z,16.37
2018-11-20T16:32:34.898Z,15.80
2018-11-20T16:35:21.226Z,14.80
2018-11-20T16:37:57.169Z,15.63
2018-11-20T16:40:59.625Z,14.60
2018-11-20T16:43:47.129Z,13.53
2018-11-20T16:46:59.088Z,14.78
2018-11-20T16:49:52.500Z,14.13
2018-11-20T16:52:45.065Z,13.53
2018-11-20T16:55:30.203Z,13.33
2018-11-20T16:58:17.814Z,13.90
2018-11-20T17:01:05.319Z,12.17
2018-11-20T17:03:46.954Z,11.77
2018-11-20T17:06:43.113Z,10.40
2018-11-20T17:09:48.880Z,10.40
2018-11-20T17:12:45.234Z,10.97
2018-11-20T17:15:31.246Z,9.17
2018-11-20T17:18:20.542Z,9.77
2018-11-20T17:21:06.717Z,9.73
2018-11-20T17:24:16.673Z,9.77
2018-11-20T17:27:02.993Z,8.93
2018-11-20T17:29:50.669Z,9.30
2018-11-20T17:32:47.171Z,8.77
2018-11-20T17:35:39.768Z,8.17
2018-11-20T17:38:42.134Z,8.80
2018-11-20T17:41:32.839Z,9.10
2018-11-20T17:44:23.150Z,9.70
2018-11-20T17:47:19.893Z,9.37
2018-11-20T17:50:03.686Z,9.17
2018-11-20T17:52:53.155Z,8.93
2018-11-20T17:55:40.647Z,9.37
2018-11-20T17:58:21.462Z,9.83
2018-11-20T18:01:03.972Z,9.38
2018-11-20T18:03:50.458Z,10.03
2018-11-20T18:06:36.840Z,10.27
2018-11-20T18:09:26.171Z,9.83
2018-11-20T18:12:12.657Z,10.13
2018-11-20T18:14:59.262Z,11.40
2018-11-20T18:17:51.789Z,10.73
2018-11-20T18:20:40.689Z,10.87
2018-11-20T18:23:34.015Z,10.07
2018-11-20T18:26:20.480Z,11.00
2018-11-20T18:29:32.521Z,11.10
2018-11-20T18:32:18.831Z,12.07
2018-11-20T18:35:09.681Z,11.30
2018-11-20T18:38:03.379Z,10.47
2018-11-20T18:41:05.936Z,10.77
2018-11-20T18:43:52.075Z,11.47
2018-11-20T18:46:48.851Z,11.15
2018-11-20T18:49:48.494Z,11.97
2018-11-20T18:52:31.530Z,11.45
2018-11-20T18:55:22.405Z,11.60
2018-11-20T18:58:12.637Z,12.10
2018-11-20T19:00:59.002Z,12.33
2018-11-20T19:03:49.563Z,12.00
2018-11-20T19:06:35.867Z,12.50
2018-11-20T19:09:23.146Z,12.90
2018-11-20T19:12:10.654Z,12.43
2018-11-20T19:14:56.994Z,13.20
2018-11-20T19:17:38.560Z,12.77
2018-11-20T19:20:29.335Z,11.97
2018-11-20T19:23:22.787Z,11.73
2018-11-20T19:26:28.363Z,12.87
2018-11-20T19:29:24.997Z,12.47
2018-11-20T19:32:09.573Z,13.30
2018-11-20T19:35:00.167Z,13.67
2018-11-20T19:38:06.121Z,12.40
2018-11-20T19:40:52.095Z,12.63
2018-11-20T19:43:38.460Z,12.90
2018-11-20T19:46:30.359Z,13.37
2018-11-20T19:49:14.085Z,12.70
2018-11-20T19:52:07.348Z,12.67
2018-11-20T19:54:57.420Z,13.10
2018-11-20T19:57:44.963Z,12.93
2018-11-20T20:00:50.660Z,11.77
2018-11-20T20:03:41.007Z,13.03
2018-11-20T20:06:49.719Z,13.37
2018-11-20T20:09:46.135Z,14.10
2018-11-20T20:12:36.681Z,13.57
2018-11-20T20:15:30.622Z,14.10
2018-11-20T20:18:24.096Z,14.07
2018-11-20T20:21:10.154Z,13.87
2018-11-20T20:23:48.017Z,14.43
2018-11-20T20:26:34.446Z,13.20
2018-11-20T20:29:19.672Z,13.80
2018-11-20T20:31:58.539Z,13.40
2018-11-20T20:34:48.626Z,14.30
2018-11-20T20:37:51.180Z,15.83
2018-11-20T20:40:37.240Z,15.03
2018-11-20T20:43:23.649Z,14.80
2018-11-20T20:46:09.884Z,15.83
2018-11-20T20:48:58.246Z,14.77
2018-11-20T20:51:45.941Z,14.10
2018-11-20T20:54:32.186Z,15.00
2018-11-20T20:57:28.832Z,14.93
2018-11-20T21:00:14.996Z,14.93
2018-11-20T21:03:17.848Z,14.43
2018-11-20T21:06:36.412Z,14.27
2018-11-20T21:09:36.010Z,14.23
2018-11-20T21:12:38.945Z,16.40
2018-11-20T21:15:25.711Z,15.30
2018-11-20T21:18:22.554Z,15.57
2018-11-20T21:21:25.916Z,15.60
2018-11-20T21:24:19.388Z,14.17
2018-11-20T21:27:06.923Z,15.70
2018-11-20T21:30:09.856Z,16.03
2018-11-20T21:33:16.731Z,24.40
2018-11-20T21:36:04.230Z,17.17
2018-11-20T21:38:50.808Z,15.37
2018-11-20T21:41:51.500Z,16.27
2018-11-20T21:44:38.215Z,18.40
2018-11-20T21:47:24.610Z,17.10
2018-11-20T21:50:12.180Z,16.80
2018-11-20T21:53:00.228Z,17.40
2018-11-20T21:55:49.660Z,17.17
2018-11-20T21:58:36.043Z,16.13
2018-11-20T22:01:24.742Z,17.37
2018-11-20T22:04:11.336Z,16.80
2018-11-20T22:07:01.608Z,15.60
2018-11-20T22:10:00.919Z,16.33
2018-11-20T22:12:47.110Z,16.73
2018-11-20T22:15:27.738Z,16.87
2018-11-20T22:18:40.435Z,17.10
2018-11-20T22:21:23.093Z,16.30
2018-11-20T22:24:10.716Z,16.33
2018-11-20T22:26:58.450Z,17.13
2018-11-20T22:30:00.809Z,16.87
2018-11-20T22:32:51.403Z,16.00
2018-11-20T22:35:42.083Z,15.97
2018-11-20T22:38:38.568Z,16.07
2018-11-20T22:41:29.995Z,16.33
2018-11-20T22:44:16.369Z,15.30
2018-11-20T22:47:02.503Z,16.73
2018-11-20T22:49:50.005Z,15.97
2018-11-20T22:52:55.743Z,16.37
2018-11-20T22:55:42.227Z,16.07
2018-11-20T22:58:27.567Z,16.53
2018-11-20T23:01:07.740Z,15.77
2018-11-20T23:03:58.401Z,16.10
2018-11-20T23:06:43.531Z,16.80
2018-11-20T23:09:12.421Z,16.33
2018-11-20T23:11:41.308Z,16.30
2018-11-20T23:14:09.750Z,15.47
2018-11-20T23:16:38.316Z,16.57
2018-11-20T23:19:06.921Z,15.43
2018-11-20T23:21:35.353Z,15.93
2018-11-20T23:24:03.897Z,15.30
2018-11-20T23:26:32.533Z,16.20
2018-11-20T23:29:01.033Z,15.97
2018-11-20T23:31:31.813Z,16.30
2018-11-20T23:34:00.264Z,16.00
2018-11-20T23:36:28.709Z,16.17
2018-11-20T23:39:05.002Z,15.07
2018-11-20T23:41:33.587Z,15.43
2018-11-20T23:44:08.071Z,15.63
2018-11-20T23:46:42.343Z,15.77
2018-11-20T23:49:17.511Z,16.07
2018-11-20T23:51:42.231Z,14.17
2018-11-20T23:54:25.855Z,15.40
2018-11-20T23:56:54.347Z,18.53
2018-11-20T23:59:31.006Z,15.30
